createdAt,value
2023-03-14T00:01:21.874Z,98615.80
2023-03-14T00:03:58.878Z,98625.20
2023-03-14T00:06:35.875Z,98643.20
2023-03-14T00:09:13.864Z,98632.20
2023-03-14T00:19:48.206Z,98615.40
2023-03-14T00:22:22.530Z,98617.20
2023-03-14T00:24:56.775Z,98617.20
2023-03-14T00:27:31.088Z,98614.20
2023-03-14T00:30:06.030Z,98601.80
2023-03-14T00:32:40.789Z,98597.00
2023-03-14T00:35:16.776Z,98597.60
2023-03-14T00:37:51.283Z,98595.80
2023-03-14T00:40:26.070Z,98602.00
2023-03-14T00:43:00.501Z,98607.20
2023-03-14T00:45:36.106Z,98597.60
2023-03-14T00:48:10.465Z,98582.80
2023-03-14T00:50:45.013Z,98574.40
2023-03-14T00:53:19.430Z,98576.20
2023-03-14T00:55:54.339Z,98583.60
2023-03-14T00:58:28.917Z,98579.60
2023-03-14T01:01:07.344Z,98587.40
2023-03-14T01:03:41.896Z,98609.80
2023-03-14T01:06:20.368Z,98663.00
2023-03-14T01:08:55.239Z,98666.80
2023-03-14T01:11:32.012Z,98648.60
2023-03-14T01:14:07.215Z,98630.20
2023-03-14T01:16:41.785Z,98628.80
2023-03-14T01:19:16.481Z,98614.80
2023-03-14T01:21:50.939Z,98605.80
2023-03-14T01:24:25.319Z,98590.40
2023-03-14T01:26:59.733Z,98605.40
2023-03-14T01:29:35.214Z,98610.60
2023-03-14T01:32:10.184Z,98609.80
2023-03-14T01:34:44.625Z,98601.60
2023-03-14T01:37:19.420Z,98598.80
2023-03-14T01:39:54.303Z,98596.00
2023-03-14T01:42:29.148Z,98590.60
2023-03-14T01:45:04.991Z,98590.40
2023-03-14T01:47:39.346Z,98576.80
2023-03-14T01:50:16.067Z,98566.80
2023-03-14T01:52:54.482Z,98566.80
2023-03-14T01:55:30.955Z,98559.00
2023-03-14T01:58:08.070Z,98542.00
2023-03-14T02:00:43.132Z,98516.80
2023-03-14T02:03:23.194Z,98499.60
2023-03-14T02:06:04.354Z,98483.40
2023-03-14T02:08:40.026Z,98489.00
2023-03-14T02:11:20.667Z,98498.00
2023-03-14T02:14:08.046Z,98486.60
2023-03-14T02:17:08.554Z,98483.20
2023-03-14T02:20:25.852Z,98474.80
2023-03-14T02:23:05.584Z,98434.00
2023-03-14T02:25:50.205Z,98440.00
2023-03-14T02:28:24.831Z,98450.60
2023-03-14T02:31:03.508Z,98452.60
2023-03-14T02:33:42.635Z,98450.00
2023-03-14T02:36:19.837Z,98443.20
2023-03-14T02:39:08.042Z,98443.00
2023-03-14T02:41:43.647Z,98436.20
2023-03-14T02:44:18.238Z,98421.20
2023-03-14T02:46:53.449Z,98417.00
2023-03-14T02:49:30.873Z,98416.00
2023-03-14T02:52:05.883Z,98408.60
2023-03-14T02:54:40.400Z,98419.60
2023-03-14T02:57:15.135Z,98430.20
2023-03-14T02:59:49.369Z,98415.40
2023-03-14T03:02:26.479Z,98410.40
2023-03-14T03:05:00.685Z,98402.20
2023-03-14T03:07:35.535Z,98386.00
2023-03-14T03:10:12.383Z,98371.20
2023-03-14T03:12:47.181Z,98354.20
2023-03-14T03:15:21.791Z,98361.60
2023-03-14T03:17:56.166Z,98367.80
2023-03-14T03:20:30.789Z,98361.60
2023-03-14T03:23:05.724Z,98352.00
2023-03-14T03:25:40.076Z,98347.60
2023-03-14T03:28:14.322Z,98349.20
2023-03-14T03:30:49.186Z,98330.00
2023-03-14T03:33:24.749Z,98322.00
2023-03-14T03:35:59.220Z,98324.80
2023-03-14T03:38:37.740Z,98321.20
2023-03-14T03:41:13.147Z,98322.40
2023-03-14T03:43:47.591Z,98312.00
2023-03-14T03:46:23.076Z,98322.60
2023-03-14T03:49:02.508Z,98314.40
2023-03-14T03:51:37.220Z,98316.80
2023-03-14T03:54:11.853Z,98306.80
2023-03-14T03:56:46.382Z,98285.40
2023-03-14T03:59:21.063Z,98276.00
2023-03-14T04:01:56.093Z,98286.40
2023-03-14T04:04:30.820Z,98286.20
2023-03-14T04:07:04.966Z,98294.20
2023-03-14T04:09:41.305Z,98295.60
2023-03-14T04:12:51.022Z,98288.60
2023-03-14T04:15:29.292Z,98284.80
2023-03-14T04:18:04.700Z,98287.60
2023-03-14T04:20:41.371Z,98282.20
2023-03-14T04:23:16.129Z,98284.40
2023-03-14T04:25:52.548Z,98270.60
2023-03-14T04:28:28.471Z,98270.60
2023-03-14T04:31:08.495Z,98264.00
2023-03-14T04:33:45.016Z,98266.60
2023-03-14T04:36:21.268Z,98254.60
2023-03-14T04:38:55.804Z,98241.20
2023-03-14T04:41:31.811Z,98238.00
2023-03-14T04:44:07.005Z,98237.40
2023-03-14T04:46:42.014Z,98238.00
2023-03-14T04:49:16.679Z,98244.40
2023-03-14T04:51:51.870Z,98248.80
2023-03-14T04:54:26.831Z,98257.00
2023-03-14T04:57:04.191Z,98256.80
2023-03-14T04:59:40.718Z,98250.80
2023-03-14T05:02:32.843Z,98254.60
2023-03-14T05:05:17.893Z,98253.20
2023-03-14T05:08:06.108Z,98248.60
2023-03-14T05:11:17.284Z,98247.00
2023-03-14T05:14:12.946Z,98239.80
2023-03-14T05:17:05.996Z,98242.20
2023-03-14T05:20:08.673Z,98245.60
2023-03-14T05:23:21.631Z,98238.80
2023-03-14T05:26:31.160Z,98221.20
2023-03-14T05:29:24.401Z,98222.40
2023-03-14T05:32:11.949Z,98225.60
2023-03-14T05:35:13.503Z,98202.60
2023-03-14T05:37:57.760Z,98198.60
2023-03-14T05:41:04.556Z,98207.00
2023-03-14T05:43:48.515Z,98215.00
2023-03-14T05:46:52.649Z,98214.40
2023-03-14T05:49:59.521Z,98224.40
2023-03-14T05:52:43.332Z,98237.00
2023-03-14T05:55:37.203Z,98254.80
2023-03-14T05:58:28.235Z,98254.20
2023-03-14T06:01:25.845Z,98255.00
2023-03-14T06:04:15.493Z,98248.60
2023-03-14T06:06:50.445Z,98259.80
2023-03-14T06:09:25.152Z,98256.80
2023-03-14T06:12:00.865Z,98248.80
2023-03-14T06:14:36.071Z,98245.00
2023-03-14T06:17:10.388Z,98247.20
2023-03-14T06:19:50.179Z,98259.80
2023-03-14T06:22:24.728Z,98262.80
2023-03-14T06:24:59.291Z,98257.20
2023-03-14T06:27:33.815Z,98250.80
2023-03-14T06:30:10.413Z,98252.00
2023-03-14T06:32:44.810Z,98257.80
2023-03-14T06:35:21.698Z,98265.20
2023-03-14T06:37:56.336Z,98278.20
2023-03-14T06:40:30.588Z,98286.60
2023-03-14T06:43:13.641Z,98288.60
2023-03-14T06:45:49.415Z,98285.80
2023-03-14T06:48:23.884Z,98283.40
2023-03-14T06:51:00.648Z,98280.20
2023-03-14T06:53:35.062Z,98269.80
2023-03-14T06:56:12.335Z,98268.60
2023-03-14T06:58:50.038Z,98263.40
2023-03-14T07:01:28.642Z,98268.60
2023-03-14T07:04:06.190Z,98268.40
2023-03-14T07:06:45.246Z,98277.60
2023-03-14T07:09:20.520Z,98283.60
2023-03-14T07:11:58.712Z,98284.40
2023-03-14T07:14:33.660Z,98274.00
2023-03-14T07:17:07.950Z,98272.60
2023-03-14T07:19:42.469Z,98278.60
2023-03-14T07:22:17.121Z,98283.40
2023-03-14T07:24:51.595Z,98281.40
2023-03-14T07:27:26.725Z,98281.40
2023-03-14T07:30:01.343Z,98284.80
2023-03-14T07:32:36.584Z,98287.60
2023-03-14T07:35:13.138Z,98295.00
2023-03-14T07:37:47.947Z,98284.20
2023-03-14T07:40:23.080Z,98283.20
2023-03-14T07:42:58.494Z,98279.20
2023-03-14T07:45:42.461Z,98273.60
2023-03-14T07:48:17.132Z,98274.00
2023-03-14T07:50:54.454Z,98270.60
2023-03-14T07:53:29.175Z,98262.60
2023-03-14T07:56:05.649Z,98244.20
2023-03-14T07:58:42.496Z,98236.40
2023-03-14T08:01:16.635Z,98239.00
2023-03-14T08:03:51.188Z,98245.60
2023-03-14T08:06:25.334Z,98250.80
2023-03-14T08:09:00.181Z,98261.00
2023-03-14T08:11:34.783Z,98266.00
2023-03-14T08:14:09.141Z,98252.20
2023-03-14T08:16:43.416Z,98246.40
2023-03-14T08:19:28.806Z,98247.80
2023-03-14T08:22:03.690Z,98261.80
2023-03-14T08:24:38.344Z,98285.20
2023-03-14T08:27:13.012Z,98290.40
2023-03-14T08:29:47.428Z,98291.00
2023-03-14T08:32:23.588Z,98282.80
2023-03-14T08:34:58.035Z,98298.00
2023-03-14T08:37:33.216Z,98297.40
2023-03-14T08:40:13.887Z,98306.20
2023-03-14T08:42:49.217Z,98312.60
2023-03-14T08:45:25.247Z,98316.00
2023-03-14T08:47:59.644Z,98329.60
2023-03-14T08:50:34.222Z,98331.00
2023-03-14T08:53:09.758Z,98342.40
2023-03-14T08:55:44.352Z,98348.00
2023-03-14T08:58:18.790Z,98347.20
2023-03-14T09:00:53.799Z,98357.20
2023-03-14T09:03:30.628Z,98349.60
2023-03-14T09:06:12.385Z,98342.80
2023-03-14T09:08:47.575Z,98342.60
2023-03-14T09:11:22.792Z,98333.80
2023-03-14T09:13:57.130Z,98325.40
2023-03-14T09:16:32.829Z,98323.60
2023-03-14T09:19:07.473Z,98335.00
2023-03-14T09:21:41.779Z,98337.40
2023-03-14T09:24:21.852Z,98336.80
2023-03-14T09:26:56.889Z,98345.20
2023-03-14T09:29:32.095Z,98344.00
2023-03-14T09:32:07.375Z,98337.20
2023-03-14T09:34:41.849Z,98333.80
2023-03-14T09:37:17.371Z,98328.80
2023-03-14T09:39:51.775Z,98336.20
2023-03-14T09:42:30.545Z,98344.00
2023-03-14T09:45:12.952Z,98348.00
2023-03-14T09:47:58.751Z,98346.80
2023-03-14T09:50:42.545Z,98358.80
2023-03-14T09:53:21.226Z,98369.00
2023-03-14T09:56:00.183Z,98375.40
2023-03-14T09:58:35.613Z,98375.80
2023-03-14T10:01:17.560Z,98379.80
2023-03-14T10:03:53.440Z,98376.40
2023-03-14T10:06:31.685Z,98371.20
2023-03-14T10:09:08.304Z,98374.00
2023-03-14T10:11:43.290Z,98374.60
2023-03-14T10:14:33.790Z,98366.80
2023-03-14T10:17:18.176Z,98368.40
2023-03-14T10:20:01.632Z,98365.00
2023-03-14T10:22:37.382Z,98370.80
2023-03-14T10:25:31.795Z,98368.20
2023-03-14T10:28:14.002Z,98368.60
2023-03-14T10:30:50.273Z,98360.00
2023-03-14T10:33:30.141Z,98347.20
2023-03-14T10:36:07.980Z,98343.00
2023-03-14T10:38:43.443Z,98349.20
2023-03-14T10:41:26.898Z,98350.40
2023-03-14T10:44:04.449Z,98356.60
2023-03-14T10:46:39.102Z,98346.00
2023-03-14T10:49:36.570Z,98333.20
2023-03-14T10:52:50.952Z,98322.80
2023-03-14T10:55:19.466Z,98321.20
2023-03-14T10:57:54.082Z,98321.00
2023-03-14T11:00:33.683Z,98313.20
2023-03-14T11:03:16.230Z,98311.20
2023-03-14T11:05:59.258Z,98310.40
2023-03-14T11:08:44.166Z,98311.00
2023-03-14T11:11:26.374Z,98312.20
2023-03-14T11:14:26.458Z,98305.80
2023-03-14T11:17:10.650Z,98298.40
2023-03-14T11:20:10.245Z,98293.40
2023-03-14T11:22:54.109Z,98290.20
2023-03-14T11:25:38.602Z,98281.20
2023-03-14T11:28:24.981Z,98278.20
2023-03-14T11:31:13.469Z,98268.80
2023-03-14T11:34:03.750Z,98270.00
2023-03-14T11:36:44.079Z,98262.40
2023-03-14T11:39:21.842Z,98266.40
2023-03-14T11:42:01.248Z,98259.60
2023-03-14T11:44:41.844Z,98256.20
2023-03-14T11:47:21.340Z,98261.00
2023-03-14T11:50:04.659Z,98260.20
2023-03-14T11:52:46.782Z,98266.00
2023-03-14T11:55:31.269Z,98273.00
2023-03-14T11:58:17.634Z,98271.20
2023-03-14T12:00:56.368Z,98262.80
2023-03-14T12:03:42.330Z,98258.60
2023-03-14T12:06:26.872Z,98263.20
2023-03-14T12:09:04.352Z,98268.00
2023-03-14T12:11:50.187Z,98267.40
2023-03-14T12:14:32.672Z,98257.60
2023-03-14T12:17:20.934Z,98271.40
2023-03-14T12:20:17.413Z,98265.40
2023-03-14T12:22:55.175Z,98262.00
2023-03-14T12:25:33.149Z,98262.60
2023-03-14T12:28:32.153Z,98259.80
2023-03-14T12:31:48.830Z,98254.00
2023-03-14T12:34:36.202Z,98258.80
2023-03-14T12:37:29.201Z,98254.40
2023-03-14T12:40:19.934Z,98251.20
2023-03-14T12:43:21.520Z,98239.00
2023-03-14T12:46:22.992Z,98243.60
2023-03-14T12:49:10.477Z,98240.20
2023-03-14T12:51:46.861Z,98244.00
2023-03-14T12:54:46.417Z,98244.00
2023-03-14T12:57:36.255Z,98250.00
2023-03-14T13:00:24.492Z,98247.20
2023-03-14T13:03:23.328Z,98248.40
2023-03-14T13:06:04.452Z,98254.60
2023-03-14T13:08:45.652Z,98239.20
2023-03-14T13:11:23.398Z,98241.40
2023-03-14T13:14:03.500Z,98241.80
2023-03-14T13:16:41.771Z,98238.20
2023-03-14T13:19:24.684Z,98245.20
2023-03-14T13:22:07.029Z,98235.80
2023-03-14T13:24:42.125Z,98237.40
2023-03-14T13:27:25.082Z,98235.00
2023-03-14T13:29:59.806Z,98232.20
2023-03-14T13:32:34.813Z,98236.60
2023-03-14T13:35:24.239Z,98231.80
2023-03-14T13:38:13.190Z,98239.60
2023-03-14T13:40:49.878Z,98240.60
2023-03-14T13:43:35.238Z,98233.80
2023-03-14T13:46:15.453Z,98238.40
2023-03-14T13:48:53.171Z,98232.00
2023-03-14T13:51:35.292Z,98227.80
2023-03-14T13:54:18.076Z,98228.20
2023-03-14T13:57:03.635Z,98229.00
2023-03-14T13:59:39.670Z,98230.40
2023-03-14T14:02:18.776Z,98223.20
2023-03-14T14:04:53.366Z,98228.80
2023-03-14T14:07:28.485Z,98231.00
2023-03-14T14:10:05.020Z,98226.80
2023-03-14T14:12:45.294Z,98224.40
2023-03-14T14:21:28.561Z,98235.40
2023-03-14T14:34:51.340Z,98216.60
2023-03-14T14:37:28.909Z,98230.00
2023-03-14T14:40:10.068Z,98227.00
2023-03-14T14:42:47.090Z,98217.40
2023-03-14T14:45:25.965Z,98219.60
2023-03-14T14:48:06.428Z,98231.20
2023-03-14T14:50:51.805Z,98229.80
2023-03-14T14:53:31.727Z,98223.80
2023-03-14T14:56:17.926Z,98221.80
2023-03-14T14:58:59.560Z,98221.80
2023-03-14T15:01:40.521Z,98221.40
2023-03-14T15:04:18.136Z,98220.20
2023-03-14T15:06:54.801Z,98222.40
2023-03-14T15:09:29.391Z,98215.80
2023-03-14T15:12:03.874Z,98209.40
2023-03-14T15:14:38.043Z,98203.80
2023-03-14T15:17:15.754Z,98211.00
2023-03-14T15:19:49.977Z,98206.20
2023-03-14T15:22:24.529Z,98203.40
2023-03-14T15:24:58.872Z,98208.80
2023-03-14T15:27:35.028Z,98204.40
2023-03-14T15:30:15.349Z,98198.00
2023-03-14T15:32:49.879Z,98200.60
2023-03-14T15:35:25.005Z,98197.20
2023-03-14T15:37:59.234Z,98194.40
2023-03-14T15:40:34.008Z,98198.40
2023-03-14T15:43:08.595Z,98194.40
2023-03-14T15:45:43.405Z,98187.80
2023-03-14T15:48:22.172Z,98186.40
2023-03-14T15:50:57.882Z,98187.20
2023-03-14T15:53:32.095Z,98187.80
2023-03-14T15:56:07.363Z,98194.20
2023-03-14T15:58:42.111Z,98193.40
2023-03-14T16:01:17.960Z,98199.20
2023-03-14T16:03:53.902Z,98190.20
2023-03-14T16:06:28.321Z,98190.00
2023-03-14T16:09:02.802Z,98189.40
2023-03-14T16:11:37.039Z,98197.80
2023-03-14T16:14:12.035Z,98196.60
2023-03-14T16:16:46.459Z,98201.00
2023-03-14T16:19:21.322Z,98194.60
2023-03-14T16:21:55.863Z,98191.80
2023-03-14T16:24:31.114Z,98191.40
2023-03-14T16:27:08.116Z,98202.40
2023-03-14T16:29:43.245Z,98202.00
2023-03-14T16:32:17.876Z,98207.40
2023-03-14T16:34:52.472Z,98205.20
2023-03-14T16:37:28.558Z,98204.20
2023-03-14T16:43:14.902Z,98209.20
2023-03-14T16:45:51.098Z,98213.40
2023-03-14T16:48:25.549Z,98209.40
2023-03-14T16:51:00.618Z,98209.00
2023-03-14T16:53:35.173Z,98216.20
2023-03-14T16:56:11.343Z,98216.60
2023-03-14T16:58:46.178Z,98215.60
2023-03-14T17:01:21.817Z,98218.20
2023-03-14T17:03:57.160Z,98226.00
2023-03-14T17:06:32.554Z,98227.60
2023-03-14T17:09:07.408Z,98236.60
2023-03-14T17:11:41.920Z,98237.80
2023-03-14T17:14:16.446Z,98241.20
2023-03-14T17:16:51.826Z,98243.80
2023-03-14T17:19:26.252Z,98246.40
2023-03-14T17:22:21.103Z,98253.40
2023-03-14T17:24:55.474Z,98264.20
2023-03-14T17:27:30.872Z,98267.20
2023-03-14T17:30:05.781Z,98266.60
2023-03-14T17:32:40.204Z,98271.20
2023-03-14T17:35:14.421Z,98275.60
2023-03-14T17:37:49.253Z,98282.60
2023-03-14T17:40:24.172Z,98288.20
2023-03-14T17:42:58.577Z,98288.80
2023-03-14T17:45:33.836Z,98296.80
2023-03-14T17:48:09.369Z,98294.20
2023-03-14T17:50:44.215Z,98299.60
2023-03-14T17:53:19.076Z,98294.40
2023-03-14T17:55:54.689Z,98297.80
2023-03-14T17:58:29.190Z,98301.80
2023-03-14T18:01:14.697Z,98302.00
2023-03-14T18:03:49.725Z,98303.20
2023-03-14T18:06:24.793Z,98309.40
2023-03-14T18:09:00.066Z,98311.20
2023-03-14T18:11:35.423Z,98310.20
2023-03-14T18:14:11.653Z,98313.00
2023-03-14T18:16:51.443Z,98318.00
2023-03-14T18:19:26.332Z,98318.00
2023-03-14T18:22:00.932Z,98318.20
2023-03-14T18:24:35.516Z,98322.20
2023-03-14T18:27:11.066Z,98318.40
2023-03-14T18:29:46.154Z,98314.60
2023-03-14T18:32:21.294Z,98316.80
2023-03-14T18:34:55.619Z,98324.40
2023-03-14T18:37:30.506Z,98329.20
2023-03-14T18:40:06.915Z,98327.80
2023-03-14T18:42:42.180Z,98327.80
2023-03-14T18:45:17.320Z,98326.40
2023-03-14T18:47:51.850Z,98326.00
2023-03-14T18:50:26.767Z,98325.00
2023-03-14T18:53:01.863Z,98331.40
2023-03-14T18:55:36.806Z,98333.40
2023-03-14T18:58:11.340Z,98331.20
2023-03-14T19:00:45.862Z,98328.60
2023-03-14T19:03:20.326Z,98328.60
2023-03-14T19:05:55.681Z,98335.60
2023-03-14T19:08:31.371Z,98333.00
2023-03-14T19:11:11.316Z,98334.60
2023-03-14T19:13:46.918Z,98336.60
2023-03-14T19:16:22.462Z,98342.40
2023-03-14T19:18:58.256Z,98346.60
2023-03-14T19:21:34.976Z,98354.20
2023-03-14T19:24:10.918Z,98356.00
2023-03-14T19:26:45.503Z,98349.80
2023-03-14T19:29:20.728Z,98347.80
2023-03-14T19:31:55.239Z,98350.60
2023-03-14T19:34:30.086Z,98354.60
2023-03-14T19:37:04.838Z,98355.20
2023-03-14T19:39:39.364Z,98363.60
2023-03-14T19:42:14.148Z,98369.80
2023-03-14T19:44:48.732Z,98378.20
2023-03-14T19:47:23.239Z,98384.00
2023-03-14T19:49:59.916Z,98399.80
2023-03-14T19:52:35.096Z,98412.80
2023-03-14T19:55:12.823Z,98422.00
2023-03-14T19:57:47.474Z,98428.00
2023-03-14T20:00:23.785Z,98444.80
2023-03-14T20:02:58.662Z,98538.00
2023-03-14T20:05:33.183Z,98583.40
2023-03-14T20:08:08.078Z,98588.40
2023-03-14T20:10:42.585Z,98591.20
2023-03-14T20:13:22.026Z,98609.80
2023-03-14T20:15:57.183Z,98621.60
2023-03-14T20:18:31.764Z,98636.00
2023-03-14T20:21:12.831Z,98649.60
2023-03-14T20:23:47.396Z,98675.00
2023-03-14T20:26:21.813Z,98674.60
2023-03-14T20:28:56.380Z,98700.60
2023-03-14T20:31:30.798Z,98722.20
2023-03-14T20:34:05.551Z,98739.40
2023-03-14T20:36:40.202Z,98756.40
2023-03-14T20:39:15.724Z,98771.40
2023-03-14T20:41:50.471Z,98792.00
2023-03-14T20:44:24.893Z,98797.20
2023-03-14T20:47:00.860Z,98825.20
2023-03-14T20:49:35.756Z,98839.80
2023-03-14T20:52:12.179Z,98862.20
2023-03-14T20:54:47.418Z,98872.80
2023-03-14T20:57:22.287Z,98892.60
2023-03-14T20:59:56.856Z,98910.40
2023-03-14T21:02:31.398Z,98909.00
2023-03-14T21:05:06.510Z,98919.60
2023-03-14T21:07:43.740Z,98944.60
2023-03-14T21:10:19.302Z,98961.40
2023-03-14T21:12:53.797Z,98968.40
2023-03-14T21:15:28.355Z,98973.80
2023-03-14T21:18:05.649Z,98996.80
2023-03-14T21:20:42.310Z,99005.40
2023-03-14T21:23:18.608Z,99009.80
2023-03-14T21:25:55.870Z,99027.40
2023-03-14T21:28:30.333Z,99037.80
2023-03-14T21:31:11.993Z,99037.20
2023-03-14T21:33:46.571Z,99039.60
2023-03-14T21:36:21.492Z,99054.00
2023-03-14T21:38:56.080Z,99086.60
2023-03-14T21:41:30.592Z,99102.80
2023-03-14T21:44:04.709Z,99125.00
2023-03-14T21:46:39.910Z,99140.20
2023-03-14T21:49:14.396Z,99140.60
2023-03-14T21:51:49.805Z,99141.80
2023-03-14T21:54:25.593Z,99143.20
2023-03-14T21:57:00.353Z,99154.20
2023-03-14T21:59:35.777Z,99163.60
2023-03-14T22:02:16.610Z,99165.40
2023-03-14T22:04:51.300Z,99170.40
2023-03-14T22:07:25.813Z,99163.60
2023-03-14T22:10:00.268Z,99179.80
2023-03-14T22:12:34.689Z,99181.00
2023-03-14T22:15:11.631Z,99185.80
2023-03-14T22:17:46.247Z,99208.40
2023-03-14T22:20:21.411Z,99217.00
2023-03-14T22:22:55.927Z,99232.80
2023-03-14T22:25:30.912Z,99241.80
2023-03-14T22:28:06.124Z,99237.20
2023-03-14T22:30:41.397Z,99252.80
2023-03-14T22:33:16.235Z,99257.60
2023-03-14T22:35:54.512Z,99263.60
2023-03-14T22:38:29.351Z,99270.60
2023-03-14T22:41:06.748Z,99282.20
2023-03-14T22:43:41.576Z,99275.20
2023-03-14T22:46:16.828Z,99280.40
2023-03-14T22:48:51.392Z,99281.80
2023-03-14T22:51:26.122Z,99295.80
2023-03-14T22:54:00.544Z,99295.80
2023-03-14T22:56:34.742Z,99303.60
2023-03-14T22:59:09.359Z,99321.80
2023-03-14T23:01:43.578Z,99321.00
2023-03-14T23:04:18.237Z,99324.60
2023-03-14T23:06:52.774Z,99326.00
2023-03-14T23:09:27.161Z,99323.60
2023-03-14T23:12:01.750Z,99323.00
2023-03-14T23:14:36.263Z,99326.60
2023-03-14T23:17:11.128Z,99326.20
2023-03-14T23:19:45.895Z,99336.60
2023-03-14T23:22:20.583Z,99341.60
2023-03-14T23:24:55.129Z,99347.60
2023-03-14T23:27:29.771Z,99359.00
2023-03-14T23:30:04.955Z,99362.00
2023-03-14T23:32:39.662Z,99364.40
2023-03-14T23:35:15.180Z,99367.40
2023-03-14T23:37:50.138Z,99376.60
2023-03-14T23:40:25.307Z,99382.20
2023-03-14T23:42:59.821Z,99381.20
2023-03-14T23:45:34.372Z,99396.40
2023-03-14T23:48:09.580Z,99407.60
2023-03-14T23:50:44.102Z,99423.60
2023-03-14T23:53:18.748Z,99429.60
2023-03-14T23:55:53.210Z,99433.20
2023-03-14T23:58:28.755Z,99439.20
